Time;durP1;ratioP1;P1;durP2;ratioP2;P2;SDS_P1;SDS_P2;PMS_P1;PMS_P2;Temp;Humidity;BMP_temperature;BMP_pressure;BME280_temperature;BME280_humidity;BME280_pressure;Samples;Min_cycle;Max_cycle;Signal;HPM_P1;HPM_P2
2022/03/13 00:00:39;;;;;;;1.38;1.17;;;7.50;99.90;;;;;;4960925;28;20302;-69
2022/03/13 00:03:10;;;;;;;5.57;3.25;;;7.40;99.90;;;;;;4956536;28;20099;-69
2022/03/13 00:05:38;;;;;;;6.00;3.15;;;7.40;99.90;;;;;;4964797;28;20407;-69
2022/03/13 00:08:26;;;;;;;5.72;3.30;;;7.40;99.90;;;;;;4947558;28;20050;-69
2022/03/13 00:11:17;;;;;;;5.57;3.50;;;7.30;99.90;;;;;;4937693;29;20042;-69
2022/03/13 00:13:51;;;;;;;4.03;1.98;;;7.30;99.90;;;;;;4953933;28;20086;-69
2022/03/13 00:16:18;;;;;;;7.10;2.47;;;7.30;99.90;;;;;;4973588;28;20109;-68
2022/03/13 00:18:48;;;;;;;6.32;3.67;;;7.30;99.90;;;;;;4965566;28;20047;-69
2022/03/13 00:21:16;;;;;;;5.22;3.08;;;7.40;99.90;;;;;;4956745;28;20066;-69
2022/03/13 00:23:43;;;;;;;3.75;1.85;;;7.40;99.90;;;;;;4942906;28;20046;-69
2022/03/13 00:26:09;;;;;;;6.68;4.28;;;7.40;99.90;;;;;;4981198;28;20062;-69
2022/03/13 00:28:36;;;;;;;5.85;3.83;;;7.40;99.90;;;;;;4960104;28;20054;-69
2022/03/13 00:31:02;;;;;;;7.95;4.10;;;7.40;99.90;;;;;;4961786;28;20324;-69
2022/03/13 00:33:28;;;;;;;13.95;4.07;;;7.40;99.90;;;;;;4962786;28;20046;-69
2022/03/13 00:35:54;;;;;;;10.13;5.90;;;7.50;99.90;;;;;;4967018;28;20039;-69
2022/03/13 00:38:19;;;;;;;4.65;3.38;;;7.50;99.90;;;;;;4954056;28;20050;-69
2022/03/13 00:40:51;;;;;;;7.93;4.78;;;7.60;99.90;;;;;;4959220;28;20059;-69
2022/03/13 00:43:20;;;;;;;9.18;5.85;;;7.60;99.90;;;;;;4981496;28;20582;-69
2022/03/13 00:45:46;;;;;;;7.97;5.55;;;7.60;99.90;;;;;;4982032;28;20043;-68
2022/03/13 00:48:12;;;;;;;7.60;5.55;;;7.60;99.90;;;;;;4946546;28;20047;-68
2022/03/13 00:50:38;;;;;;;5.68;3.92;;;7.70;99.90;;;;;;4964780;28;20041;-68
2022/03/13 00:53:05;;;;;;;6.88;3.90;;;7.70;99.90;;;;;;4980272;28;20043;-68
2022/03/13 00:55:31;;;;;;;4.20;2.55;;;7.70;99.90;;;;;;4953922;28;20399;-69
2022/03/13 00:57:57;;;;;;;3.05;2.20;;;7.70;99.90;;;;;;4957681;28;20437;-69
2022/03/13 01:00:22;;;;;;;3.10;2.35;;;7.70;99.90;;;;;;4954568;28;20136;-69
2022/03/13 01:02:49;;;;;;;13.23;5.30;;;7.70;99.90;;;;;;4962711;28;20503;-69
2022/03/13 01:05:24;;;;;;;12.60;5.30;;;7.60;99.90;;;;;;4961072;28;20105;-68
2022/03/13 01:07:57;;;;;;;4.88;3.92;;;7.60;99.90;;;;;;4965109;28;20046;-69
2022/03/13 01:10:24;;;;;;;4.13;3.13;;;7.60;99.90;;;;;;4948284;28;20058;-69
2022/03/13 01:12:51;;;;;;;5.82;3.55;;;7.60;99.90;;;;;;4952528;28;20094;-69
2022/03/13 01:15:17;;;;;;;4.22;2.63;;;7.60;99.90;;;;;;4959336;28;20043;-68
2022/03/13 01:17:44;;;;;;;5.00;2.78;;;7.60;99.90;;;;;;4959870;28;20690;-69
2022/03/13 01:20:22;;;;;;;4.38;3.58;;;7.50;99.90;;;;;;4980893;28;20490;-69
2022/03/13 01:22:49;;;;;;;3.00;2.15;;;7.50;99.90;;;;;;4950495;28;20054;-69
2022/03/13 01:25:15;;;;;;;10.65;5.95;;;7.40;99.90;;;;;;4958955;28;20043;-69
2022/03/13 01:27:41;;;;;;;1.05;1.00;;;7.40;99.90;;;;;;4978572;28;20507;-69
2022/03/13 01:30:08;;;;;;;4.75;3.20;;;7.40;99.90;;;;;;4950321;28;20038;-69
2022/03/13 01:32:34;;;;;;;6.30;3.13;;;7.30;99.90;;;;;;4967259;28;20038;-69
2022/03/13 01:35:00;;;;;;;6.28;2.95;;;7.30;99.90;;;;;;4954660;28;20058;-69
2022/03/13 01:37:44;;;;;;;5.30;1.90;;;7.30;99.90;;;;;;4958883;28;20057;-69
2022/03/13 01:40:11;;;;;;;12.70;5.43;;;7.30;99.90;;;;;;4952551;28;20070;-69
2022/03/13 01:42:42;;;;;;;8.10;4.00;;;7.30;99.90;;;;;;4958955;28;20054;-69
2022/03/13 01:45:11;;;;;;;5.20;3.05;;;7.20;99.90;;;;;;4962920;28;20070;-69
2022/03/13 01:47:37;;;;;;;2.67;1.88;;;7.20;99.90;;;;;;4963190;28;20047;-69
2022/03/13 01:50:09;;;;;;;4.57;1.88;;;7.20;99.90;;;;;;4979696;28;20126;-69
2022/03/13 01:52:47;;;;;;;6.28;3.88;;;7.10;99.90;;;;;;4959700;28;20166;-69
2022/03/13 01:55:14;;;;;;;8.27;4.70;;;7.20;99.90;;;;;;4954223;28;20499;-70
2022/03/13 01:57:40;;;;;;;2.28;2.10;;;7.20;99.90;;;;;;4980756;28;20043;-69
2022/03/13 02:03:26;;;;;;;8.05;3.60;;;7.20;99.90;;;;;;4945710;28;20186;-69
2022/03/13 02:05:51;;;;;;;6.00;2.55;;;7.30;99.90;;;;;;4961981;28;20050;-69
2022/03/13 02:08:19;;;;;;;12.57;6.32;;;7.40;99.90;;;;;;4962940;28;20043;-69
2022/03/13 02:10:45;;;;;;;6.60;3.60;;;7.50;99.90;;;;;;4948595;28;20073;-69
2022/03/13 02:13:16;;;;;;;5.22;4.03;;;7.60;99.90;;;;;;4946599;28;20051;-69
2022/03/13 02:15:41;;;;;;;3.85;2.75;;;7.70;99.90;;;;;;4946722;29;20464;-69
2022/03/13 02:18:08;;;;;;;8.43;6.13;;;7.80;99.90;;;;;;4956962;28;20053;-69
2022/03/13 02:21:03;;;;;;;9.57;3.90;;;7.90;99.90;;;;;;4960202;28;20453;-69
2022/03/13 02:23:30;;;;;;;10.38;4.70;;;8.00;99.90;;;;;;4962095;28;20069;-69
2022/03/13 02:25:58;;;;;;;8.50;5.18;;;8.00;99.90;;;;;;4961135;28;20069;-69
2022/03/13 02:28:25;;;;;;;5.35;2.90;;;8.10;99.90;;;;;;4953784;28;20128;-69
2022/03/13 02:30:53;;;;;;;4.75;4.00;;;8.20;99.90;;;;;;4964485;28;20137;-69
2022/03/13 02:33:21;;;;;;;6.88;4.65;;;8.20;99.90;;;;;;4929234;29;20051;-68
2022/03/13 02:35:56;;;;;;;7.80;4.53;;;8.30;99.90;;;;;;4950567;28;20395;-68
2022/03/13 02:38:23;;;;;;;9.68;4.63;;;8.40;99.90;;;;;;4958827;28;20055;-68
2022/03/13 02:40:48;;;;;;;5.30;3.90;;;8.40;99.90;;;;;;4957452;28;20055;-68
2022/03/13 02:43:16;;;;;;;4.10;2.90;;;8.50;99.90;;;;;;4956110;28;20466;-68
2022/03/13 02:45:41;;;;;;;7.78;4.60;;;8.50;99.90;;;;;;4980538;28;20043;-69
2022/03/13 02:48:09;;;;;;;5.50;3.22;;;8.50;99.90;;;;;;4941606;28;20067;-69
2022/03/13 02:50:36;;;;;;;4.38;2.78;;;8.50;99.90;;;;;;4976112;28;20169;-69
2022/03/13 02:53:02;;;;;;;4.45;3.10;;;8.50;99.90;;;;;;4955630;28;20125;-69
2022/03/13 02:55:28;;;;;;;3.67;3.28;;;8.30;99.90;;;;;;4976645;28;20059;-69
2022/03/13 02:57:54;;;;;;;2.97;2.58;;;8.10;99.90;;;;;;4950442;28;20046;-69
2022/03/13 03:00:21;;;;;;;3.95;2.50;;;7.90;99.90;;;;;;4947049;28;20043;-69
2022/03/13 03:02:48;;;;;;;8.05;3.85;;;7.80;99.90;;;;;;4954153;28;20043;-69
2022/03/13 03:05:14;;;;;;;0.98;0.90;;;7.70;99.90;;;;;;4948594;28;20615;-69
2022/03/13 03:07:41;;;;;;;6.97;4.10;;;7.60;99.90;;;;;;4981073;28;20041;-69
2022/03/13 03:10:14;;;;;;;2.78;2.20;;;7.50;99.90;;;;;;4964722;28;20516;-69
2022/03/13 03:12:40;;;;;;;3.25;2.95;;;7.40;99.90;;;;;;4964947;28;20050;-69
2022/03/13 03:15:06;;;;;;;5.60;3.38;;;7.30;99.90;;;;;;4965488;28;20409;-69
2022/03/13 03:17:31;;;;;;;5.78;2.45;;;7.30;99.90;;;;;;4949349;28;20042;-69
2022/03/13 03:19:57;;;;;;;2.60;2.38;;;7.20;99.90;;;;;;4950217;28;20627;-69
2022/03/13 03:22:23;;;;;;;2.05;1.70;;;7.10;99.90;;;;;;4978674;28;20043;-69
2022/03/13 03:24:48;;;;;;;2.83;2.10;;;7.10;99.90;;;;;;4962877;28;20477;-69
2022/03/13 03:27:16;;;;;;;2.80;1.83;;;7.10;99.90;;;;;;4974390;28;20043;-69
2022/03/13 03:29:42;;;;;;;2.78;2.55;;;7.00;99.90;;;;;;4965402;28;20043;-69
2022/03/13 03:32:08;;;;;;;5.95;2.38;;;7.00;99.90;;;;;;4966449;28;20674;-69
2022/03/13 03:34:34;;;;;;;2.60;1.92;;;7.00;99.90;;;;;;4931015;28;20527;-69
2022/03/13 03:37:01;;;;;;;4.07;3.15;;;7.00;99.90;;;;;;4962788;28;20050;-69
2022/03/13 03:39:29;;;;;;;6.47;3.22;;;6.90;99.90;;;;;;4971476;28;20035;-69
2022/03/13 03:41:55;;;;;;;8.55;4.32;;;6.90;99.90;;;;;;4958037;28;20076;-69
2022/03/13 03:44:22;;;;;;;4.25;2.75;;;6.90;99.90;;;;;;4946996;28;20035;-69
2022/03/13 03:46:50;;;;;;;6.32;3.25;;;7.00;99.90;;;;;;4958354;28;20489;-69
2022/03/13 03:49:17;;;;;;;5.88;4.40;;;7.00;99.90;;;;;;4972499;28;20043;-69
2022/03/13 03:51:43;;;;;;;1.40;1.33;;;7.00;99.90;;;;;;4978024;28;20046;-69
2022/03/13 03:54:11;;;;;;;5.85;2.05;;;7.00;99.90;;;;;;4975158;28;20092;-69
2022/03/13 03:56:36;;;;;;;4.30;3.85;;;7.00;99.90;;;;;;4952358;28;20046;-69
2022/03/13 03:59:04;;;;;;;1.15;1.08;;;7.10;99.90;;;;;;4957439;28;20166;-69
2022/03/13 04:01:40;;;;;;;1.65;1.55;;;7.00;99.90;;;;;;4970193;28;20545;-69
2022/03/13 04:04:07;;;;;;;2.97;2.70;;;6.90;99.90;;;;;;4968380;28;20049;-69
2022/03/13 04:06:34;;;;;;;6.18;3.53;;;6.90;99.90;;;;;;4945014;28;20406;-69
2022/03/13 04:09:00;;;;;;;1.75;1.45;;;6.80;99.90;;;;;;4960409;28;20506;-69
2022/03/13 04:11:26;;;;;;;0.52;0.52;;;6.70;99.90;;;;;;4965550;28;20126;-69
2022/03/13 04:13:52;;;;;;;2.30;2.17;;;6.70;99.90;;;;;;4939366;28;20035;-69
2022/03/13 04:16:18;;;;;;;4.70;2.83;;;6.70;99.90;;;;;;4965904;28;20129;-69
2022/03/13 04:18:43;;;;;;;0.40;0.40;;;6.60;99.90;;;;;;4963340;28;20064;-69
2022/03/13 04:21:09;;;;;;;3.03;2.63;;;6.60;99.90;;;;;;4967978;28;20067;-69
2022/03/13 04:23:35;;;;;;;1.88;1.55;;;6.60;99.90;;;;;;4966961;28;20053;-69
2022/03/13 04:26:03;;;;;;;0.40;0.40;;;6.60;99.90;;;;;;4953481;28;20297;-69
2022/03/13 04:28:28;;;;;;;1.85;1.40;;;6.50;99.90;;;;;;4971141;28;20081;-69
2022/03/13 04:30:57;;;;;;;5.70;3.67;;;6.50;99.90;;;;;;4956496;28;20087;-68
2022/03/13 04:33:23;;;;;;;4.22;3.80;;;6.50;99.90;;;;;;4982652;28;20466;-68
2022/03/13 04:35:49;;;;;;;0.82;0.82;;;6.50;99.90;;;;;;4961754;28;20046;-69
2022/03/13 04:38:15;;;;;;;3.05;2.33;;;6.50;99.90;;;;;;4987664;28;20097;-69
2022/03/13 04:40:41;;;;;;;4.70;3.78;;;6.50;99.90;;;;;;4966593;28;20055;-69
2022/03/13 04:43:07;;;;;;;8.73;2.78;;;6.50;99.90;;;;;;4958480;28;20098;-69
2022/03/13 04:45:34;;;;;;;4.20;2.58;;;6.50;99.90;;;;;;4967124;28;20046;-69
2022/03/13 04:47:59;;;;;;;2.90;2.35;;;6.60;99.90;;;;;;4966606;28;20050;-69
2022/03/13 04:50:25;;;;;;;5.45;3.92;;;6.60;99.90;;;;;;4978830;28;20118;-69
2022/03/13 04:52:50;;;;;;;2.42;2.15;;;6.70;99.90;;;;;;4965294;28;20062;-69
2022/03/13 04:55:18;;;;;;;2.65;2.22;;;6.70;99.90;;;;;;4968759;28;20043;-69
2022/03/13 04:57:43;;;;;;;7.72;5.57;;;6.70;99.90;;;;;;4947340;28;20035;-69
2022/03/13 05:00:09;;;;;;;2.35;2.15;;;6.70;99.90;;;;;;4966896;28;20878;-69
2022/03/13 05:02:36;;;;;;;7.50;4.40;;;6.70;99.90;;;;;;4968134;28;20046;-69
2022/03/13 05:05:01;;;;;;;3.70;2.45;;;6.70;99.90;;;;;;4968439;28;20174;-69
2022/03/13 05:07:27;;;;;;;3.78;3.45;;;6.70;99.90;;;;;;4984314;28;20082;-69
2022/03/13 05:09:53;;;;;;;6.97;4.65;;;6.70;99.90;;;;;;4978688;28;20053;-69
2022/03/13 05:12:21;;;;;;;5.07;4.28;;;6.70;99.90;;;;;;4970963;28;20538;-69
2022/03/13 05:14:47;;;;;;;4.18;3.70;;;6.70;99.90;;;;;;4955376;28;20117;-69
2022/03/13 05:17:13;;;;;;;5.20;3.58;;;6.70;99.90;;;;;;4938933;28;20126;-69
2022/03/13 05:19:38;;;;;;;5.97;3.97;;;6.70;99.90;;;;;;4942447;28;20042;-69
2022/03/13 05:22:04;;;;;;;4.95;4.40;;;6.70;99.90;;;;;;4970957;28;20052;-69
2022/03/13 05:24:57;;;;;;;3.00;2.70;;;6.70;99.90;;;;;;4958820;28;20065;-69
2022/03/13 05:27:23;;;;;;;;;;;6.60;99.90;;;;;;4962349;28;20034;-69
2022/03/13 05:29:49;;;;;;;4.38;3.72;;;6.60;99.90;;;;;;4969498;28;20513;-69
2022/03/13 05:32:14;;;;;;;2.38;2.17;;;6.50;99.90;;;;;;4965405;28;20129;-69
2022/03/13 05:34:40;;;;;;;6.53;3.83;;;6.40;99.90;;;;;;4966934;28;20049;-69
2022/03/13 05:37:13;;;;;;;10.20;6.25;;;6.40;99.90;;;;;;4952802;28;20042;-69
2022/03/13 05:39:43;;;;;;;3.97;3.10;;;6.40;99.90;;;;;;4900328;28;20084;-69
2022/03/13 05:42:09;;;;;;;4.90;2.88;;;6.30;99.90;;;;;;4967561;28;20467;-69
2022/03/13 05:44:36;;;;;;;4.30;2.72;;;6.30;99.90;;;;;;4968927;28;20538;-69
2022/03/13 05:47:02;;;;;;;5.93;2.25;;;6.30;99.90;;;;;;4967503;28;20486;-69
2022/03/13 05:49:29;;;;;;;3.90;3.47;;;6.30;99.90;;;;;;4965142;28;20472;-69
2022/03/13 05:51:54;;;;;;;4.25;3.03;;;6.30;99.90;;;;;;4982135;28;20050;-68
2022/03/13 05:54:20;;;;;;;2.78;2.58;;;6.30;99.90;;;;;;4962356;28;20045;-68
2022/03/13 05:56:46;;;;;;;2.47;2.28;;;6.30;99.90;;;;;;4968030;28;20106;-68
2022/03/13 05:59:12;;;;;;;8.57;4.53;;;6.30;99.90;;;;;;4957588;28;20034;-68
2022/03/13 06:01:38;;;;;;;4.75;3.42;;;6.30;99.90;;;;;;4975422;28;20042;-69
2022/03/13 06:04:05;;;;;;;4.45;3.65;;;6.30;99.90;;;;;;4951710;28;20050;-69
2022/03/13 06:06:33;;;;;;;3.03;2.70;;;6.40;99.90;;;;;;4982744;28;20042;-69
2022/03/13 06:08:58;;;;;;;7.70;4.38;;;6.40;99.90;;;;;;4964209;28;20047;-69
2022/03/13 06:11:24;;;;;;;10.55;6.18;;;6.30;99.90;;;;;;4971600;28;20050;-68
2022/03/13 06:17:46;;;;;;;10.13;6.13;;;6.40;99.90;;;;;;4841903;29;20083;-68
2022/03/13 06:20:14;;;;;;;4.88;4.43;;;6.40;99.90;;;;;;4835617;29;20049;-69
2022/03/13 06:22:42;;;;;;;13.10;6.82;;;6.40;99.90;;;;;;4825392;29;20056;-69
2022/03/13 06:25:09;;;;;;;6.22;3.88;;;6.40;99.90;;;;;;4811639;29;20137;-68
2022/03/13 06:27:58;;;;;;;6.05;4.00;;;6.40;99.90;;;;;;4828220;29;20781;-69
2022/03/13 06:30:25;;;;;;;1.42;1.33;;;6.50;99.90;;;;;;4806570;29;20486;-69
2022/03/13 06:32:53;;;;;;;16.10;6.43;;;6.50;99.90;;;;;;4826669;29;20041;-69
2022/03/13 06:35:21;;;;;;;5.80;4.15;;;6.50;99.90;;;;;;4835928;29;20533;-69
2022/03/13 06:37:48;;;;;;;9.68;4.68;;;6.50;99.90;;;;;;4834108;29;20056;-69
2022/03/13 06:40:18;;;;;;;2.42;2.22;;;6.60;99.90;;;;;;4835339;29;20412;-69
2022/03/13 06:42:44;;;;;;;8.50;4.57;;;6.50;99.90;;;;;;4844339;29;20072;-69
2022/03/13 06:45:10;;;;;;;6.55;4.28;;;6.50;99.90;;;;;;4851177;29;20048;-69
2022/03/13 06:47:40;;;;;;;8.20;4.38;;;6.50;99.90;;;;;;4832612;29;20132;-69
2022/03/13 06:50:07;;;;;;;6.57;5.03;;;6.50;99.90;;;;;;4851117;29;20110;-69
2022/03/13 06:52:32;;;;;;;9.88;5.43;;;6.50;99.90;;;;;;4821919;29;20045;-69
2022/03/13 06:54:58;;;;;;;2.47;1.90;;;6.50;99.90;;;;;;4917930;28;20042;-69
2022/03/13 06:57:24;;;;;;;8.13;4.43;;;6.60;99.90;;;;;;4968388;28;20039;-69
2022/03/13 06:59:49;;;;;;;7.70;4.00;;;6.60;99.90;;;;;;4986631;28;20265;-68
2022/03/13 07:02:15;;;;;;;10.60;5.95;;;6.60;99.90;;;;;;4967954;28;20096;-68
2022/03/13 07:04:41;;;;;;;6.28;4.25;;;6.70;99.90;;;;;;4980064;28;20038;-68
2022/03/13 07:07:07;;;;;;;13.05;6.70;;;6.70;99.90;;;;;;4983243;28;20046;-68
2022/03/13 07:09:32;;;;;;;6.32;4.38;;;6.80;99.90;;;;;;4940932;28;20834;-69
2022/03/13 07:11:58;;;;;;;9.40;5.65;;;6.80;99.90;;;;;;4974158;28;20047;-69
2022/03/13 07:14:24;;;;;;;10.35;4.07;;;6.90;99.90;;;;;;4947846;28;20065;-69
2022/03/13 07:16:50;;;;;;;14.45;5.97;;;7.00;99.90;;;;;;4983550;28;20066;-69
2022/03/13 07:19:16;;;;;;;7.90;3.60;;;7.10;99.90;;;;;;4953447;28;20030;-69
2022/03/13 07:21:45;;;;;;;3.92;3.42;;;7.10;99.90;;;;;;4978322;28;20046;-69
2022/03/13 07:24:10;;;;;;;6.47;3.92;;;7.20;99.90;;;;;;4951759;28;20042;-69
2022/03/13 07:26:36;;;;;;;6.50;4.68;;;7.30;99.90;;;;;;4982131;28;20187;-69
2022/03/13 07:29:03;;;;;;;4.70;3.45;;;7.40;99.90;;;;;;4964022;28;20682;-69
2022/03/13 07:31:30;;;;;;;7.15;4.13;;;7.50;99.90;;;;;;4982318;28;20507;-69
2022/03/13 07:33:55;;;;;;;5.93;3.40;;;7.60;99.90;;;;;;4952136;28;20093;-69
2022/03/13 07:36:22;;;;;;;6.07;3.83;;;7.70;99.90;;;;;;4981862;28;20030;-69
2022/03/13 07:38:47;;;;;;;2.42;1.70;;;7.80;99.90;;;;;;4969090;28;20038;-69
2022/03/13 07:41:13;;;;;;;5.75;4.82;;;7.90;99.90;;;;;;4954529;28;20062;-69
2022/03/13 07:43:40;;;;;;;4.43;2.53;;;7.90;99.90;;;;;;4969806;28;20171;-69
2022/03/13 07:46:05;;;;;;;7.90;3.80;;;8.00;99.90;;;;;;4984861;28;20577;-69
2022/03/13 07:48:34;;;;;;;19.27;3.78;;;8.00;99.90;;;;;;4950267;28;20057;-69
2022/03/13 07:51:00;;;;;;;2.67;2.17;;;8.10;99.90;;;;;;4947491;28;20446;-69
2022/03/13 07:53:27;;;;;;;8.73;3.08;;;8.10;99.90;;;;;;4950399;28;20109;-69
2022/03/13 07:55:54;;;;;;;4.47;2.65;;;8.10;99.90;;;;;;4984541;28;20042;-69
2022/03/13 07:58:20;;;;;;;4.32;3.40;;;8.20;99.90;;;;;;4966649;28;20094;-69
2022/03/13 08:00:46;;;;;;;3.35;2.25;;;8.20;99.90;;;;;;4972233;28;20046;-69
2022/03/13 08:03:12;;;;;;;9.20;4.68;;;8.20;99.90;;;;;;4971659;28;20062;-69
2022/03/13 08:05:38;;;;;;;13.25;5.65;;;8.20;99.90;;;;;;4954637;28;20112;-69
2022/03/13 08:08:04;;;;;;;2.47;1.65;;;8.30;99.90;;;;;;4958100;28;20066;-69
2022/03/13 08:10:30;;;;;;;8.82;3.50;;;8.30;99.90;;;;;;4968047;28;20110;-69
2022/03/13 08:13:08;;;;;;;6.22;3.80;;;8.40;99.90;;;;;;4974861;28;20594;-69
2022/03/13 08:15:34;;;;;;;2.42;1.33;;;8.50;99.90;;;;;;4956477;28;20043;-69
2022/03/13 08:18:00;;;;;;;5.32;3.90;;;8.60;99.90;;;;;;4973928;28;20518;-69
2022/03/13 08:20:26;;;;;;;2.22;2.05;;;8.60;99.90;;;;;;4960920;28;20042;-69
2022/03/13 08:22:51;;;;;;;2.70;2.05;;;8.70;99.90;;;;;;4954317;28;20042;-69
2022/03/13 08:25:19;;;;;;;5.80;3.35;;;8.70;99.90;;;;;;4987631;28;20046;-69
2022/03/13 08:27:45;;;;;;;10.40;4.97;;;8.70;99.90;;;;;;4962932;28;20129;-69
2022/03/13 08:30:12;;;;;;;7.68;4.90;;;8.80;99.90;;;;;;4964629;28;20546;-69
2022/03/13 08:32:38;;;;;;;6.68;3.22;;;8.80;99.90;;;;;;4957464;28;20084;-69
2022/03/13 08:35:12;;;;;;;5.15;3.28;;;8.90;99.80;;;;;;4960736;28;20125;-69
2022/03/13 08:37:56;;;;;;;7.10;5.03;;;8.90;97.90;;;;;;4962634;28;20038;-69
2022/03/13 08:40:34;;;;;;;4.10;2.88;;;9.10;98.40;;;;;;4958656;28;20775;-69
2022/03/13 08:43:00;;;;;;;7.18;3.20;;;9.20;98.50;;;;;;4949119;28;20796;-69
2022/03/13 08:45:25;;;;;;;10.02;5.43;;;9.40;98.10;;;;;;4953585;28;20464;-69
2022/03/13 08:47:51;;;;;;;9.30;4.60;;;9.60;97.70;;;;;;4974842;28;20061;-69
2022/03/13 08:50:17;;;;;;;10.27;5.45;;;9.90;96.50;;;;;;4948977;28;20177;-69
2022/03/13 08:52:43;;;;;;;6.05;3.15;;;10.00;96.00;;;;;;4954943;28;20097;-69
2022/03/13 08:55:13;;;;;;;17.60;3.60;;;10.10;95.00;;;;;;4960774;28;20050;-69
2022/03/13 08:57:41;;;;;;;5.40;3.42;;;10.30;95.10;;;;;;4970855;28;20038;-69
2022/03/13 09:00:10;;;;;;;3.75;2.75;;;10.50;94.50;;;;;;4976985;28;20046;-69
2022/03/13 09:02:36;;;;;;;14.65;4.63;;;10.80;94.30;;;;;;4954865;28;20058;-69
2022/03/13 09:05:02;;;;;;;12.23;5.65;;;11.40;92.50;;;;;;4962315;28;20039;-69
2022/03/13 09:07:28;;;;;;;3.13;2.25;;;12.30;90.60;;;;;;4977515;28;20517;-69
2022/03/13 09:09:53;;;;;;;5.38;3.00;;;12.90;81.90;;;;;;4953760;28;20196;-69
2022/03/13 09:12:19;;;;;;;3.53;2.80;;;13.60;76.60;;;;;;4968073;28;20444;-69
2022/03/13 09:14:45;;;;;;;9.40;5.20;;;13.90;72.60;;;;;;4974670;28;20057;-69
2022/03/13 09:17:11;;;;;;;4.72;3.67;;;14.20;68.90;;;;;;4962211;28;20045;-69
2022/03/13 09:19:36;;;;;;;5.15;3.15;;;14.30;67.10;;;;;;4958444;28;20491;-69
2022/03/13 09:22:02;;;;;;;12.43;5.80;;;14.50;65.20;;;;;;4959831;28;20046;-69
2022/03/13 09:24:28;;;;;;;5.95;3.80;;;14.80;64.30;;;;;;4955642;28;20038;-69
2022/03/13 09:26:54;;;;;;;11.38;5.40;;;14.90;60.70;;;;;;4958364;28;20047;-69
2022/03/13 09:29:19;;;;;;;8.63;4.38;;;15.10;60.90;;;;;;4971763;28;20069;-69
2022/03/13 09:31:45;;;;;;;11.25;5.53;;;15.20;60.00;;;;;;4961007;28;20104;-69
2022/03/13 09:34:11;;;;;;;4.93;3.67;;;14.90;60.30;;;;;;4959661;28;20491;-69
2022/03/13 09:36:37;;;;;;;6.22;3.80;;;14.80;59.20;;;;;;4960676;28;20034;-67
2022/03/13 09:39:07;;;;;;;9.77;4.68;;;14.70;57.60;;;;;;4961675;28;20038;-67
2022/03/13 09:41:32;;;;;;;5.28;4.15;;;14.80;56.30;;;;;;4975161;28;20063;-67
2022/03/13 09:43:58;;;;;;;5.53;3.75;;;14.90;55.90;;;;;;4959164;28;20489;-67
2022/03/13 09:46:24;;;;;;;5.90;4.32;;;15.00;56.10;;;;;;4967161;28;20046;-66
2022/03/13 09:48:52;;;;;;;5.25;3.50;;;15.10;56.80;;;;;;4964030;28;20050;-67
2022/03/13 09:51:18;;;;;;;7.55;4.00;;;15.20;56.10;;;;;;4972620;28;20054;-67
2022/03/13 09:53:44;;;;;;;11.10;5.50;;;15.40;56.60;;;;;;4958708;28;20034;-67
2022/03/13 09:56:33;;;;;;;5.45;2.72;;;15.50;56.00;;;;;;4973848;28;20045;-69
2022/03/13 09:58:58;;;;;;;8.98;4.85;;;15.60;56.20;;;;;;4931648;29;20051;-67
2022/03/13 10:01:24;;;;;;;11.32;4.72;;;15.60;56.00;;;;;;4936194;29;20063;-67
2022/03/13 10:03:50;;;;;;;6.05;3.25;;;15.60;54.10;;;;;;4933918;29;20106;-67
2022/03/13 10:06:15;;;;;;;10.27;4.45;;;15.50;55.70;;;;;;4924824;29;20534;-67
2022/03/13 10:08:41;;;;;;;6.40;3.53;;;15.50;56.40;;;;;;4934387;29;20106;-67
2022/03/13 10:11:07;;;;;;;7.88;4.40;;;15.60;55.20;;;;;;4928575;29;20051;-67
2022/03/13 10:13:40;;;;;;;10.68;4.20;;;15.60;55.40;;;;;;4937871;29;20137;-67
2022/03/13 10:16:07;;;;;;;;;;;15.50;54.00;;;;;;4928480;29;20625;-67
2022/03/13 10:18:33;;;;;;;12.50;5.80;;;15.50;54.80;;;;;;4919273;29;19922;-67
2022/03/13 10:21:09;;;;;;;10.85;5.40;;;15.50;55.00;;;;;;4934604;29;20106;-67
2022/03/13 10:23:36;;;;;;;5.32;3.22;;;15.40;55.00;;;;;;4923834;29;20051;-67
2022/03/13 10:26:02;;;;;;;7.50;4.22;;;15.30;54.30;;;;;;4933994;29;20106;-67
2022/03/13 10:28:30;;;;;;;6.47;4.00;;;15.40;55.20;;;;;;4938573;29;20055;-67
2022/03/13 10:30:58;;;;;;;12.02;3.28;;;15.40;53.80;;;;;;4934703;29;20153;-67
2022/03/13 10:33:55;;;;;;;9.50;6.32;;;15.40;55.20;;;;;;4906554;29;20048;-67
2022/03/13 10:36:31;;;;;;;10.07;6.82;;;15.40;53.40;;;;;;4938140;28;20053;-67
2022/03/13 10:39:25;;;;;;;11.52;5.82;;;15.40;53.80;;;;;;4966804;28;20506;-67
2022/03/13 10:41:59;;;;;;;5.95;4.32;;;15.30;53.40;;;;;;4871102;29;20059;-67
2022/03/13 10:44:25;;;;;;;5.32;3.60;;;15.40;53.60;;;;;;4870728;29;20588;-67
2022/03/13 10:46:56;;;;;;;6.68;4.07;;;15.50;54.00;;;;;;4854581;29;20064;-67
2022/03/13 10:49:42;;;;;;;5.68;3.35;;;15.60;55.00;;;;;;4863089;29;20083;-67
2022/03/13 10:52:29;;;;;;;7.95;4.88;;;15.60;53.70;;;;;;4862594;29;20060;-67
2022/03/13 10:55:15;;;;;;;4.05;2.75;;;15.70;53.80;;;;;;4831941;29;20055;-67
2022/03/13 10:57:48;;;;;;;8.27;5.20;;;15.80;54.50;;;;;;4868998;29;20051;-67
2022/03/13 11:00:15;;;;;;;14.02;3.85;;;16.00;54.60;;;;;;4888625;29;20056;-67
2022/03/13 11:02:42;;;;;;;4.78;2.78;;;16.10;53.50;;;;;;4872371;29;20102;-67
2022/03/13 11:05:07;;;;;;;2.17;1.98;;;16.20;54.10;;;;;;4865500;29;20466;-67
2022/03/13 11:07:34;;;;;;;13.50;3.92;;;16.40;54.10;;;;;;4868502;29;20053;-67
2022/03/13 11:10:00;;;;;;;5.47;3.67;;;16.40;53.50;;;;;;4872671;29;20072;-67
2022/03/13 11:12:27;;;;;;;4.53;3.03;;;16.50;53.90;;;;;;4872396;29;20454;-67
2022/03/13 11:14:55;;;;;;;6.65;4.20;;;16.60;53.60;;;;;;4872682;29;20088;-67
2022/03/13 11:17:33;;;;;;;8.73;4.47;;;16.70;53.60;;;;;;4888141;29;20072;-67
2022/03/13 11:20:00;;;;;;;6.95;4.65;;;16.80;53.10;;;;;;4946274;29;20082;-67
2022/03/13 11:22:27;;;;;;;6.50;3.78;;;16.80;51.80;;;;;;4961194;28;20047;-67
2022/03/13 11:25:01;;;;;;;9.73;5.70;;;16.80;52.40;;;;;;4940685;29;20043;-67
2022/03/13 11:27:29;;;;;;;3.47;2.85;;;16.90;52.00;;;;;;4962752;28;20124;-67
2022/03/13 11:29:55;;;;;;;5.97;4.20;;;16.90;52.30;;;;;;4931387;29;20062;-67
2022/03/13 11:32:50;;;;;;;11.07;3.53;;;17.00;52.40;;;;;;4943962;29;20043;-67
2022/03/13 11:35:17;;;;;;;5.53;3.78;;;16.90;51.10;;;;;;4936895;29;21881;-67
2022/03/13 11:37:59;;;;;;;10.43;5.45;;;16.90;51.90;;;;;;4930920;29;20639;-67
2022/03/13 11:40:32;;;;;;;6.80;4.17;;;16.90;50.90;;;;;;4954026;28;20050;-67
2022/03/13 11:43:10;;;;;;;4.88;3.05;;;16.80;50.90;;;;;;4966431;28;20047;-67
2022/03/13 11:46:00;;;;;;;10.75;4.30;;;16.80;51.90;;;;;;4966636;28;20090;-67
2022/03/13 11:48:25;;;;;;;6.45;4.53;;;17.00;52.10;;;;;;4952289;28;20051;-67
2022/03/13 11:50:59;;;;;;;7.43;4.63;;;17.20;52.60;;;;;;4985620;28;20058;-67
2022/03/13 11:53:29;;;;;;;6.93;4.43;;;17.30;51.00;;;;;;4954133;28;20043;-66
2022/03/13 11:55:58;;;;;;;7.55;5.03;;;17.30;50.00;;;;;;4966137;28;20051;-67
2022/03/13 11:58:41;;;;;;;13.63;5.68;;;17.30;51.60;;;;;;4970248;28;20471;-67
2022/03/13 12:01:18;;;;;;;5.38;3.53;;;17.30;52.60;;;;;;4966729;28;20088;-67
2022/03/13 12:04:09;;;;;;;7.38;4.32;;;17.40;51.40;;;;;;4965392;28;20796;-68
2022/03/13 12:06:43;;;;;;;4.50;2.97;;;17.40;51.50;;;;;;4959576;28;20046;-68
2022/03/13 12:09:32;;;;;;;6.75;4.03;;;17.40;51.10;;;;;;4965056;28;20047;-68
2022/03/13 12:12:04;;;;;;;8.98;5.85;;;17.40;52.40;;;;;;4966676;28;20062;-68
2022/03/13 12:15:05;;;;;;;6.63;4.07;;;17.40;50.00;;;;;;4951937;28;20038;-68
2022/03/13 12:17:44;;;;;;;6.70;4.05;;;17.50;51.70;;;;;;4930714;28;20130;-67
2022/03/13 12:20:21;;;;;;;10.68;5.07;;;17.50;52.10;;;;;;4979314;28;20055;-68
2022/03/13 12:22:54;;;;;;;6.65;3.63;;;17.40;51.20;;;;;;4946599;28;20178;-68
2022/03/13 12:25:30;;;;;;;5.90;4.05;;;17.40;51.40;;;;;;4972767;28;20066;-68
2022/03/13 12:27:56;;;;;;;9.60;5.10;;;17.40;51.60;;;;;;4961600;28;20545;-68
2022/03/13 12:30:27;;;;;;;10.52;3.88;;;17.40;51.20;;;;;;4983214;28;20209;-68
2022/03/13 12:32:58;;;;;;;9.38;4.80;;;17.30;51.80;;;;;;4945243;28;20093;-68
2022/03/13 12:35:24;;;;;;;12.35;5.82;;;17.30;50.80;;;;;;4967576;28;20046;-68
2022/03/13 12:37:55;;;;;;;9.35;5.25;;;17.30;51.40;;;;;;4948724;28;20038;-68
2022/03/13 12:40:23;;;;;;;11.10;6.00;;;17.20;51.70;;;;;;4981027;28;20427;-68
2022/03/13 12:42:56;;;;;;;4.38;3.03;;;17.20;51.20;;;;;;4967395;28;20665;-68
2022/03/13 12:45:22;;;;;;;8.60;4.75;;;17.10;51.50;;;;;;4975960;28;20125;-68
2022/03/13 12:47:49;;;;;;;5.70;3.72;;;17.00;51.00;;;;;;4975456;28;20042;-68
2022/03/13 12:50:18;;;;;;;5.97;4.22;;;16.90;51.10;;;;;;4965919;28;20149;-68
2022/03/13 12:52:44;;;;;;;11.90;6.22;;;16.90;51.20;;;;;;4963532;28;20074;-68
2022/03/13 12:55:11;;;;;;;7.82;5.07;;;16.90;49.70;;;;;;4967959;28;20038;-68
2022/03/13 12:57:38;;;;;;;7.72;5.03;;;16.80;51.30;;;;;;4963542;28;20340;-68
2022/03/13 13:00:06;;;;;;;8.88;5.15;;;16.60;51.80;;;;;;4961590;28;20139;-68
2022/03/13 13:02:32;;;;;;;9.05;5.22;;;16.70;52.10;;;;;;4963630;28;20670;-68
2022/03/13 13:05:04;;;;;;;6.78;4.20;;;16.70;52.00;;;;;;4962474;28;20251;-68
2022/03/13 13:07:40;;;;;;;5.15;3.63;;;16.70;51.30;;;;;;4980992;28;20050;-68